Time;durP1;ratioP1;P1;durP2;ratioP2;P2;SDS_P1;SDS_P2;PMS_P1;PMS_P2;Temp;Humidity;BMP_temperature;BMP_pressure;BME280_temperature;BME280_humidity;BME280_pressure;Samples;Min_cycle;Max_cycle;Signal;HPM_P1;HPM_P2
2022/10/12 00:01:40;;;;;;;0.15;0.15;;;5.20;99.90;;;;;;4984744;28;20046;-86
2022/10/12 00:04:06;;;;;;;0.00;0.00;;;6.30;99.90;;;;;;4966831;28;20058;-86
2022/10/12 00:06:32;;;;;;;0.00;0.00;;;5.20;99.90;;;;;;5003534;28;20050;-86
2022/10/12 00:08:57;;;;;;;0.75;0.75;;;5.20;99.90;;;;;;4985835;28;20189;-86
2022/10/12 00:11:26;;;;;;;0.20;0.20;;;5.20;99.90;;;;;;4964649;28;20508;-86
2022/10/12 00:13:53;;;;;;;0.15;0.15;;;6.20;99.90;;;;;;4980615;28;20046;-86
2022/10/12 00:16:20;;;;;;;0.20;0.20;;;5.00;99.90;;;;;;4979604;28;20042;-86
2022/10/12 00:18:54;;;;;;;0.00;0.00;;;5.40;99.90;;;;;;4980298;28;20113;-86
2022/10/12 00:21:20;;;;;;;0.00;0.00;;;4.90;99.90;;;;;;4977318;28;20050;-86
2022/10/12 00:23:46;;;;;;;1.27;1.20;;;5.00;99.90;;;;;;4960982;28;20106;-86
2022/10/12 00:26:17;;;;;;;0.00;0.00;;;5.00;99.90;;;;;;4995033;28;20046;-87
2022/10/12 00:28:44;;;;;;;0.63;0.28;;;4.90;99.90;;;;;;4994536;28;20058;-87
2022/10/12 00:31:12;;;;;;;0.93;0.75;;;4.90;99.90;;;;;;4975664;28;20135;-86
2022/10/12 00:33:38;;;;;;;0.55;0.47;;;4.90;99.90;;;;;;4993670;28;20042;-85
2022/10/12 00:36:21;;;;;;;0.00;0.00;;;4.90;99.90;;;;;;4960107;28;20111;-85
2022/10/12 00:38:47;;;;;;;0.00;0.00;;;4.90;99.90;;;;;;4940970;28;20050;-86
2022/10/12 00:41:15;;;;;;;0.00;0.00;;;5.80;99.90;;;;;;4974027;28;20043;-86
2022/10/12 00:43:43;;;;;;;0.10;0.10;;;5.80;99.90;;;;;;4975604;28;20054;-86
2022/10/12 00:46:24;;;;;;;0.00;0.00;;;4.90;99.90;;;;;;4960991;28;20118;-87
2022/10/12 00:48:58;;;;;;;0.10;0.10;;;4.80;99.90;;;;;;4978353;28;20085;-87
2022/10/12 00:51:24;;;;;;;1.10;0.30;;;4.80;99.90;;;;;;4975161;28;20055;-86
2022/10/12 00:53:58;;;;;;;0.00;0.00;;;4.80;99.90;;;;;;4957097;28;20038;-86
2022/10/12 00:56:28;;;;;;;0.00;0.00;;;6.00;99.90;;;;;;4940815;28;20047;-87
2022/10/12 00:58:56;;;;;;;0.00;0.00;;;5.90;99.90;;;;;;4956590;28;20093;-86
2022/10/12 01:01:22;;;;;;;0.00;0.00;;;4.80;99.90;;;;;;4974706;28;20055;-86
2022/10/12 01:03:48;;;;;;;0.22;0.20;;;5.10;99.90;;;;;;4972165;28;20050;-86
2022/10/12 01:06:14;;;;;;;0.00;0.00;;;4.70;99.90;;;;;;4973497;28;20050;-86
2022/10/12 01:08:41;;;;;;;0.30;0.30;;;4.70;99.90;;;;;;4991219;28;20058;-86
2022/10/12 01:11:06;;;;;;;0.00;0.00;;;4.50;99.90;;;;;;4979485;28;20061;-87
2022/10/12 01:13:32;;;;;;;0.00;0.00;;;4.40;99.90;;;;;;4995227;28;20042;-86
2022/10/12 01:16:12;;;;;;;0.00;0.00;;;4.30;99.90;;;;;;4992349;28;20109;-86
2022/10/12 01:18:50;;;;;;;0.00;0.00;;;4.30;99.90;;;;;;4976048;28;20049;-86
2022/10/12 01:21:20;;;;;;;0.00;0.00;;;4.30;99.90;;;;;;4976856;28;20092;-86
2022/10/12 01:24:13;;;;;;;0.00;0.00;;;4.20;99.90;;;;;;4994180;28;20046;-86
2022/10/12 01:27:02;;;;;;;0.20;0.20;;;4.20;99.90;;;;;;4977227;28;20042;-86
2022/10/12 01:29:55;;;;;;;0.20;0.20;;;4.20;99.90;;;;;;4995128;28;20101;-86
2022/10/12 01:32:39;;;;;;;0.30;0.30;;;4.10;99.90;;;;;;4980295;28;20165;-86
2022/10/12 01:35:21;;;;;;;0.20;0.20;;;5.10;99.90;;;;;;4996407;28;20530;-84
2022/10/12 01:38:04;;;;;;;0.00;0.00;;;4.30;99.90;;;;;;4996742;28;20042;-85
2022/10/12 01:40:38;;;;;;;0.00;0.00;;;4.20;99.90;;;;;;4996932;28;20129;-86
2022/10/12 01:43:04;;;;;;;0.65;0.65;;;4.10;99.90;;;;;;4979260;28;20062;-86
2022/10/12 01:45:30;;;;;;;0.00;0.00;;;4.10;99.90;;;;;;4996831;28;20641;-86
2022/10/12 01:47:56;;;;;;;0.10;0.10;;;4.90;99.90;;;;;;4978242;28;20054;-86
2022/10/12 01:50:29;;;;;;;0.00;0.00;;;4.00;99.90;;;;;;4995509;28;20077;-86
2022/10/12 01:53:41;;;;;;;0.00;0.00;;;4.00;99.90;;;;;;4995204;28;20077;-86
2022/10/12 01:56:20;;;;;;;0.00;0.00;;;4.00;99.90;;;;;;4974696;28;20068;-85
2022/10/12 02:01:37;;;;;;;0.00;0.00;;;4.00;99.90;;;;;;4841340;23;20550;-77
2022/10/12 02:04:21;;;;;;;0.10;0.10;;;4.00;99.90;;;;;;4942695;29;20062;-78
2022/10/12 02:07:13;;;;;;;0.00;0.00;;;3.90;99.90;;;;;;4957859;29;20051;-78
2022/10/12 02:09:40;;;;;;;0.20;0.20;;;3.90;99.90;;;;;;4940822;29;20119;-77
2022/10/12 02:12:14;;;;;;;0.00;0.00;;;3.90;99.90;;;;;;4937411;29;20066;-76
2022/10/12 02:14:44;;;;;;;0.10;0.10;;;3.90;99.90;;;;;;4953644;29;20047;-78
2022/10/12 02:17:13;;;;;;;0.57;0.57;;;3.90;99.90;;;;;;4954491;29;20375;-77
2022/10/12 02:19:42;;;;;;;0.00;0.00;;;3.90;99.90;;;;;;4955153;29;20111;-78
2022/10/12 02:22:09;;;;;;;0.10;0.10;;;4.00;99.90;;;;;;4953724;29;20062;-78
2022/10/12 02:24:44;;;;;;;0.00;0.00;;;4.00;99.90;;;;;;4953891;29;20118;-79
2022/10/12 02:27:12;;;;;;;0.00;0.00;;;4.00;99.90;;;;;;4936969;29;20529;-79
2022/10/12 02:29:40;;;;;;;0.08;0.00;;;4.10;99.90;;;;;;4953424;29;20051;-77
2022/10/12 02:32:41;;;;;;;0.00;0.00;;;4.20;99.90;;;;;;4953914;29;20043;-78
2022/10/12 02:35:24;;;;;;;0.00;0.00;;;4.30;99.90;;;;;;4968919;28;20110;-79
2022/10/12 02:38:06;;;;;;;0.38;0.22;;;4.30;99.90;;;;;;4974796;28;20400;-79
2022/10/12 02:40:53;;;;;;;0.10;0.10;;;4.40;99.90;;;;;;4957060;28;20059;-77
2022/10/12 02:43:33;;;;;;;0.00;0.00;;;4.40;99.90;;;;;;4952463;28;20106;-78
2022/10/12 02:46:00;;;;;;;0.00;0.00;;;4.50;99.90;;;;;;4934199;29;20078;-78
2022/10/12 02:48:28;;;;;;;0.35;0.15;;;4.60;99.90;;;;;;4934699;29;20418;-79
2022/10/12 02:50:56;;;;;;;0.00;0.00;;;4.60;99.90;;;;;;4935024;29;20078;-78
2022/10/12 02:53:23;;;;;;;0.00;0.00;;;4.60;99.90;;;;;;4934632;29;20048;-79
2022/10/12 02:55:51;;;;;;;0.45;0.45;;;4.60;99.90;;;;;;4934607;29;20054;-79
2022/10/12 02:58:17;;;;;;;0.00;0.00;;;4.60;99.90;;;;;;4916049;29;20510;-79
2022/10/12 03:00:43;;;;;;;0.00;0.00;;;4.60;99.90;;;;;;4946643;28;20097;-78
2022/10/12 03:03:08;;;;;;;0.00;0.00;;;4.60;99.90;;;;;;4952576;29;20051;-77
2022/10/12 03:05:34;;;;;;;0.00;0.00;;;4.50;99.90;;;;;;4955103;28;20043;-78
2022/10/12 03:08:00;;;;;;;4.85;0.73;;;4.60;99.90;;;;;;4950894;29;20051;-78
2022/10/12 03:10:25;;;;;;;0.00;0.00;;;4.50;99.90;;;;;;4953222;29;20047;-77
2022/10/12 03:12:51;;;;;;;0.00;0.00;;;4.50;99.90;;;;;;4952864;29;20047;-78
2022/10/12 03:15:16;;;;;;;0.00;0.00;;;4.50;99.90;;;;;;4967537;28;20557;-77
2022/10/12 03:17:42;;;;;;;0.00;0.00;;;4.40;99.90;;;;;;4971579;28;20058;-79
2022/10/12 03:20:08;;;;;;;0.15;0.15;;;4.40;99.90;;;;;;4967838;28;20505;-78
2022/10/12 03:22:34;;;;;;;0.00;0.00;;;4.30;99.90;;;;;;4953848;29;20614;-78
2022/10/12 03:25:00;;;;;;;0.00;0.00;;;4.30;99.90;;;;;;4966697;28;20061;-77
2022/10/12 03:27:25;;;;;;;7.03;1.25;;;4.30;99.90;;;;;;4973434;28;20047;-78
2022/10/12 03:29:51;;;;;;;0.00;0.00;;;4.30;99.90;;;;;;4972863;28;20057;-77
2022/10/12 03:32:17;;;;;;;0.20;0.20;;;4.20;99.90;;;;;;4973036;28;20102;-78
2022/10/12 03:34:43;;;;;;;0.00;0.00;;;4.20;99.90;;;;;;4961358;28;20053;-78
2022/10/12 03:37:08;;;;;;;0.00;0.00;;;4.20;99.90;;;;;;4953656;29;20126;-78
2022/10/12 03:39:34;;;;;;;0.00;0.00;;;4.10;99.90;;;;;;4954519;29;20039;-78
2022/10/12 03:42:00;;;;;;;0.00;0.00;;;4.10;99.90;;;;;;4958871;28;20098;-77
2022/10/12 03:44:25;;;;;;;0.00;0.00;;;4.10;99.90;;;;;;4966026;28;20045;-78
2022/10/12 03:46:51;;;;;;;0.00;0.00;;;4.10;99.90;;;;;;4966333;28;20046;-79
2022/10/12 03:49:17;;;;;;;0.00;0.00;;;4.10;99.90;;;;;;4973470;28;20142;-79
2022/10/12 03:51:42;;;;;;;0.00;0.00;;;4.20;99.90;;;;;;4973202;28;20047;-79
2022/10/12 03:54:08;;;;;;;0.00;0.00;;;4.30;99.90;;;;;;4967090;28;20046;-80
2022/10/12 03:56:33;;;;;;;0.00;0.00;;;4.30;99.90;;;;;;4954034;29;20406;-78
2022/10/12 03:58:59;;;;;;;0.00;0.00;;;4.30;99.90;;;;;;4954062;29;20054;-78
2022/10/12 04:01:25;;;;;;;0.00;0.00;;;4.30;99.90;;;;;;4934229;28;20051;-77
2022/10/12 04:03:50;;;;;;;0.00;0.00;;;4.30;99.90;;;;;;4937299;29;20755;-78
2022/10/12 04:06:16;;;;;;;0.00;0.00;;;4.30;99.90;;;;;;4953906;29;20043;-79
2022/10/12 04:08:42;;;;;;;0.00;0.00;;;4.40;99.90;;;;;;4952470;29;20406;-78
2022/10/12 04:11:07;;;;;;;0.03;0.03;;;4.30;99.90;;;;;;4953170;29;20043;-78
2022/10/12 04:13:33;;;;;;;0.00;0.00;;;4.30;99.90;;;;;;4939054;29;20055;-77
2022/10/12 04:16:03;;;;;;;0.00;0.00;;;4.30;99.90;;;;;;4934986;29;20044;-78
2022/10/12 04:18:29;;;;;;;0.10;0.10;;;4.40;99.90;;;;;;4935974;29;20065;-76
2022/10/12 04:20:55;;;;;;;0.35;0.30;;;4.40;99.90;;;;;;4936477;29;20175;-78
2022/10/12 04:23:20;;;;;;;0.00;0.00;;;4.40;99.90;;;;;;4935766;29;20048;-78
2022/10/12 04:25:46;;;;;;;0.85;0.85;;;4.60;99.90;;;;;;4936723;29;20048;-77
2022/10/12 04:28:11;;;;;;;0.00;0.00;;;4.50;99.90;;;;;;4936804;29;20047;-78
2022/10/12 04:30:37;;;;;;;0.00;0.00;;;4.50;99.90;;;;;;4936806;29;20047;-78
2022/10/12 04:33:04;;;;;;;0.00;0.00;;;4.50;99.90;;;;;;4936895;29;20060;-77
2022/10/12 04:35:30;;;;;;;0.10;0.10;;;4.60;99.90;;;;;;4951578;29;20071;-77
2022/10/12 04:37:56;;;;;;;0.00;0.00;;;4.60;99.90;;;;;;4955398;29;20046;-78
2022/10/12 04:40:21;;;;;;;0.10;0.05;;;4.50;99.90;;;;;;4955028;29;20043;-77
2022/10/12 04:42:47;;;;;;;0.00;0.00;;;4.40;99.90;;;;;;4951379;29;20043;-78
2022/10/12 04:45:13;;;;;;;0.00;0.00;;;4.20;99.90;;;;;;4948643;29;20051;-77
2022/10/12 04:47:39;;;;;;;0.00;0.00;;;4.30;99.90;;;;;;4954908;29;20417;-78
2022/10/12 04:50:05;;;;;;;0.00;0.00;;;4.20;99.90;;;;;;4955329;29;20047;-78
2022/10/12 04:52:31;;;;;;;0.38;0.32;;;4.10;99.90;;;;;;4953983;29;20051;-79
2022/10/12 04:54:56;;;;;;;0.00;0.00;;;4.10;99.90;;;;;;4953661;29;20667;-79
2022/10/12 04:57:23;;;;;;;0.00;0.00;;;4.10;99.90;;;;;;4961306;29;20126;-78
2022/10/12 04:59:49;;;;;;;0.10;0.10;;;4.10;99.90;;;;;;4952098;28;20712;-79
2022/10/12 05:02:15;;;;;;;0.00;0.00;;;4.10;99.90;;;;;;4952027;29;20051;-77
2022/10/12 05:04:42;;;;;;;0.10;0.10;;;4.00;99.90;;;;;;4942778;29;20502;-78
2022/10/12 05:07:08;;;;;;;0.30;0.30;;;4.10;99.90;;;;;;4940918;29;20043;-79
2022/10/12 05:09:34;;;;;;;0.10;0.10;;;4.20;99.90;;;;;;4922550;29;20054;-77
2022/10/12 05:11:59;;;;;;;0.45;0.43;;;4.10;99.90;;;;;;4958754;28;20050;-78
2022/10/12 05:14:25;;;;;;;0.45;0.28;;;4.20;99.90;;;;;;4951956;28;20542;-77
2022/10/12 05:16:50;;;;;;;0.00;0.00;;;4.10;99.90;;;;;;4938862;29;20059;-79
2022/10/12 05:19:17;;;;;;;0.00;0.00;;;4.00;99.90;;;;;;4939803;29;20039;-78
2022/10/12 05:21:43;;;;;;;0.00;0.00;;;3.90;99.90;;;;;;4939094;29;20079;-78
2022/10/12 05:24:09;;;;;;;0.00;0.00;;;3.80;99.90;;;;;;4939359;29;20062;-78
2022/10/12 05:26:35;;;;;;;0.00;0.00;;;3.70;99.90;;;;;;4958086;29;20058;-78
2022/10/12 05:29:01;;;;;;;0.00;0.00;;;3.70;99.90;;;;;;4959949;29;20058;-78
2022/10/12 05:31:27;;;;;;;0.00;0.00;;;3.60;99.90;;;;;;4959815;28;20066;-78
2022/10/12 05:33:52;;;;;;;0.30;0.28;;;3.50;99.90;;;;;;4959563;28;20062;-77
2022/10/12 05:36:18;;;;;;;0.00;0.00;;;3.40;99.90;;;;;;4958956;28;20482;-79
2022/10/12 05:38:43;;;;;;;0.00;0.00;;;3.40;99.90;;;;;;4958084;29;20050;-78
2022/10/12 05:41:09;;;;;;;0.00;0.00;;;3.30;99.90;;;;;;4957865;29;20133;-78
2022/10/12 05:43:35;;;;;;;0.00;0.00;;;3.30;99.90;;;;;;4958337;29;20057;-78
2022/10/12 05:46:00;;;;;;;0.00;0.00;;;3.30;99.90;;;;;;4957438;29;20513;-79
2022/10/12 05:48:26;;;;;;;0.00;0.00;;;3.20;99.90;;;;;;4957532;29;20055;-79
2022/10/12 05:50:55;;;;;;;0.00;0.00;;;3.20;99.90;;;;;;4958049;29;20047;-78
2022/10/12 05:53:22;;;;;;;0.00;0.00;;;3.20;99.90;;;;;;4956746;29;20180;-77
2022/10/12 05:55:56;;;;;;;0.00;0.00;;;3.20;99.90;;;;;;4959094;28;20390;-78
2022/10/12 05:58:23;;;;;;;0.00;0.00;;;3.20;99.90;;;;;;4957564;28;20214;-77
2022/10/12 06:00:49;;;;;;;0.00;0.00;;;3.20;99.90;;;;;;4971495;28;20133;-79
2022/10/12 06:03:15;;;;;;;0.00;0.00;;;3.20;99.90;;;;;;4978377;28;20054;-78
2022/10/12 06:05:41;;;;;;;0.00;0.00;;;3.20;99.90;;;;;;4977412;28;20378;-78
2022/10/12 06:08:07;;;;;;;0.10;0.10;;;3.20;99.90;;;;;;4977608;28;20070;-78
2022/10/12 06:10:34;;;;;;;0.00;0.00;;;3.20;99.90;;;;;;4977234;28;20373;-77
2022/10/12 06:13:00;;;;;;;0.00;0.00;;;3.20;99.90;;;;;;4977106;28;20085;-78
2022/10/12 06:15:26;;;;;;;0.00;0.00;;;3.20;99.90;;;;;;4976694;28;20102;-80
2022/10/12 06:17:52;;;;;;;0.00;0.00;;;3.20;99.90;;;;;;4974868;28;20050;-78
2022/10/12 06:20:17;;;;;;;0.00;0.00;;;4.00;99.90;;;;;;4973396;28;20058;-78
2022/10/12 06:22:43;;;;;;;0.00;0.00;;;3.40;99.90;;;;;;4972654;28;20044;-79
2022/10/12 06:25:08;;;;;;;0.10;0.10;;;3.40;99.90;;;;;;4970993;28;20074;-78
2022/10/12 06:27:34;;;;;;;0.00;0.00;;;3.50;99.90;;;;;;4970915;28;20413;-79
2022/10/12 06:30:00;;;;;;;0.50;0.47;;;3.60;99.90;;;;;;4971996;28;20048;-78
2022/10/12 06:32:26;;;;;;;0.15;0.15;;;3.70;99.90;;;;;;4970878;28;20110;-78
2022/10/12 06:34:51;;;;;;;0.00;0.00;;;3.80;99.90;;;;;;4972629;28;20928;-79
2022/10/12 06:37:17;;;;;;;0.25;0.25;;;3.80;99.90;;;;;;4971373;28;20066;-78
2022/10/12 06:39:42;;;;;;;0.00;0.00;;;3.90;99.90;;;;;;4970673;28;20133;-79
2022/10/12 06:42:08;;;;;;;0.00;0.00;;;4.00;99.90;;;;;;4970826;28;20058;-79
2022/10/12 06:44:34;;;;;;;0.45;0.20;;;4.10;99.90;;;;;;4970432;28;20049;-78
2022/10/12 06:46:59;;;;;;;0.03;0.03;;;4.10;99.90;;;;;;4970991;28;20454;-79
2022/10/12 06:49:25;;;;;;;0.20;0.20;;;4.20;99.90;;;;;;4971163;28;20090;-78
2022/10/12 06:51:50;;;;;;;10.98;2.00;;;4.30;99.90;;;;;;4971222;28;20109;-78
2022/10/12 06:54:16;;;;;;;0.10;0.10;;;4.40;99.90;;;;;;4972104;28;20109;-78
2022/10/12 06:56:43;;;;;;;0.00;0.00;;;4.40;99.90;;;;;;4971198;28;20508;-78
2022/10/12 06:59:11;;;;;;;0.60;0.60;;;4.50;99.90;;;;;;4970988;28;20102;-79
2022/10/12 07:01:37;;;;;;;0.15;0.15;;;4.60;99.90;;;;;;4969498;28;20518;-79
2022/10/12 07:04:03;;;;;;;1.02;0.98;;;4.60;99.90;;;;;;4969236;28;20043;-79
2022/10/12 07:06:29;;;;;;;0.22;0.22;;;4.80;99.90;;;;;;4968886;28;20082;-79
2022/10/12 07:08:55;;;;;;;0.00;0.00;;;4.90;99.90;;;;;;4970030;28;20050;-79
2022/10/12 07:11:21;;;;;;;0.30;0.30;;;5.00;99.90;;;;;;4970595;28;20046;-78
2022/10/12 07:13:46;;;;;;;0.22;0.22;;;5.00;99.90;;;;;;4967776;28;20082;-78
2022/10/12 07:16:12;;;;;;;0.43;0.43;;;5.10;99.90;;;;;;4967316;28;20444;-78
2022/10/12 07:18:38;;;;;;;0.22;0.22;;;5.10;99.90;;;;;;4966746;28;20497;-78
2022/10/12 07:21:15;;;;;;;0.65;0.55;;;5.20;99.90;;;;;;4967311;28;20058;-78
2022/10/12 07:23:43;;;;;;;0.38;0.38;;;5.20;99.90;;;;;;4967535;28;20082;-79
2022/10/12 07:26:09;;;;;;;0.05;0.05;;;5.90;99.90;;;;;;4969201;28;20599;-80
2022/10/12 07:28:35;;;;;;;0.20;0.20;;;5.40;99.90;;;;;;4968983;28;20074;-78
2022/10/12 07:31:03;;;;;;;0.98;0.60;;;5.50;99.90;;;;;;4970194;28;20524;-78
2022/10/12 07:33:33;;;;;;;0.13;0.13;;;5.60;99.90;;;;;;4971503;28;20081;-79
2022/10/12 07:35:59;;;;;;;0.43;0.43;;;5.70;99.90;;;;;;4970343;28;20123;-77
2022/10/12 07:38:25;;;;;;;0.30;0.30;;;5.90;99.90;;;;;;4967641;28;20102;-79
2022/10/12 07:40:51;;;;;;;0.00;0.00;;;6.00;99.90;;;;;;4955294;28;20066;-79
2022/10/12 07:43:16;;;;;;;1.52;0.60;;;6.10;99.90;;;;;;4966943;28;20038;-80
2022/10/12 07:45:43;;;;;;;0.10;0.10;;;6.20;99.90;;;;;;4982768;28;20059;-78
2022/10/12 07:48:08;;;;;;;0.38;0.38;;;6.30;99.90;;;;;;4970367;28;20055;-78
2022/10/12 07:50:34;;;;;;;1.42;1.10;;;6.40;99.90;;;;;;4970620;28;20038;-78
2022/10/12 07:53:00;;;;;;;0.80;0.68;;;5.90;99.90;;;;;;4973143;28;20448;-78
2022/10/12 07:55:25;;;;;;;1.13;1.02;;;6.60;99.90;;;;;;4971032;28;20211;-78
2022/10/12 07:57:51;;;;;;;5.60;1.95;;;6.70;99.90;;;;;;4969406;28;20492;-77
2022/10/12 08:00:17;;;;;;;2.55;1.77;;;6.80;99.90;;;;;;4970041;28;20320;-78
2022/10/12 08:02:42;;;;;;;0.43;0.43;;;6.90;99.90;;;;;;4970375;28;20074;-78
2022/10/12 08:05:08;;;;;;;0.10;0.10;;;7.00;99.90;;;;;;4971351;28;20549;-78
2022/10/12 08:07:34;;;;;;;0.88;0.80;;;7.10;99.90;;;;;;4968274;28;20055;-77
2022/10/12 08:09:59;;;;;;;0.35;0.35;;;7.20;99.90;;;;;;4951671;28;20125;-78
2022/10/12 08:12:25;;;;;;;16.98;0.73;;;7.30;99.90;;;;;;4969389;28;20058;-78
2022/10/12 08:14:51;;;;;;;0.65;0.65;;;7.40;99.90;;;;;;4968905;28;20077;-78
2022/10/12 08:17:16;;;;;;;2.05;0.63;;;7.50;99.90;;;;;;4969246;28;20069;-79
2022/10/12 08:19:42;;;;;;;0.10;0.10;;;7.60;99.90;;;;;;4968764;28;20485;-78
2022/10/12 08:22:10;;;;;;;0.35;0.35;;;7.70;99.90;;;;;;4970600;28;20074;-78
2022/10/12 08:24:36;;;;;;;0.65;0.20;;;7.90;99.90;;;;;;4967865;28;20225;-79
2022/10/12 08:27:01;;;;;;;2.30;1.00;;;8.00;99.90;;;;;;4969951;28;20122;-78
2022/10/12 08:29:27;;;;;;;1.02;0.63;;;8.30;99.90;;;;;;4969679;28;20085;-78
2022/10/12 08:31:53;;;;;;;0.00;0.00;;;8.50;99.90;;;;;;4971516;28;20296;-78
2022/10/12 08:34:19;;;;;;;0.00;0.00;;;8.60;99.90;;;;;;4968597;28;20050;-77
2022/10/12 08:36:44;;;;;;;2.28;0.75;;;8.70;99.90;;;;;;4967208;28;20137;-77
2022/10/12 08:39:10;;;;;;;1.35;0.57;;;8.80;99.90;;;;;;4969320;28;20085;-78
2022/10/12 08:42:09;;;;;;;4.75;1.65;;;9.00;99.90;;;;;;4949189;28;20053;-78
2022/10/12 08:44:56;;;;;;;0.17;0.17;;;9.10;99.90;;;;;;4967206;28;20050;-79
2022/10/12 08:47:45;;;;;;;0.00;0.00;;;9.30;99.90;;;;;;4967873;28;20414;-79
2022/10/12 08:50:43;;;;;;;0.52;0.45;;;9.50;99.90;;;;;;4950966;28;20397;-77
2022/10/12 08:53:28;;;;;;;2.33;1.05;;;9.60;99.90;;;;;;4962976;28;20085;-80
2022/10/12 08:55:55;;;;;;;0.00;0.00;;;9.60;99.90;;;;;;4958853;28;20133;-78
2022/10/12 08:58:35;;;;;;;2.40;0.45;;;9.60;99.90;;;;;;4967324;28;20306;-80
2022/10/12 09:01:29;;;;;;;0.15;0.15;;;9.70;99.90;;;;;;4967048;28;20078;-79
2022/10/12 09:04:06;;;;;;;1.10;0.98;;;9.70;99.90;;;;;;4967387;28;20050;-78
2022/10/12 09:06:56;;;;;;;1.38;0.68;;;9.70;99.90;;;;;;4945866;29;20054;-78
2022/10/12 09:10:12;;;;;;;1.27;0.93;;;9.70;99.90;;;;;;4946530;29;20047;-78
2022/10/12 09:12:59;;;;;;;0.63;0.63;;;9.70;99.90;;;;;;4934062;28;20055;-78
2022/10/12 09:15:33;;;;;;;0.00;0.00;;;9.80;99.90;;;;;;4965686;28;20042;-78
2022/10/12 09:18:01;;;;;;;0.52;0.32;;;9.80;99.90;;;;;;4965528;28;20039;-78
2022/10/12 09:20:30;;;;;;;0.65;0.43;;;9.80;99.90;;;;;;4966724;28;20083;-79
2022/10/12 09:23:02;;;;;;;0.95;0.38;;;9.90;99.90;;;;;;4964749;28;20038;-77
2022/10/12 09:25:28;;;;;;;0.28;0.25;;;10.00;99.90;;;;;;4964953;28;20059;-79
2022/10/12 09:31:33;;;;;;;0.10;0.10;;;10.20;90.50;;;;;;4938078;28;20109;-79
2022/10/12 09:34:02;;;;;;;0.95;0.93;;;10.40;99.90;;;;;;4966789;28;20062;-78
2022/10/12 09:36:35;;;;;;;0.47;0.35;;;10.50;99.90;;;;;;4962888;28;20137;-78
2022/10/12 09:39:26;;;;;;;0.32;0.32;;;10.70;99.90;;;;;;4967263;28;20046;-78
2022/10/12 09:41:52;;;;;;;0.00;0.00;;;10.90;99.90;;;;;;4960794;28;20055;-78
2022/10/12 09:44:32;;;;;;;0.03;0.03;;;10.90;99.90;;;;;;4963501;28;20126;-78
2022/10/12 09:47:03;;;;;;;0.10;0.10;;;11.00;99.90;;;;;;4965547;28;20047;-80
2022/10/12 09:49:42;;;;;;;0.40;0.20;;;11.30;73.20;;;;;;4963699;28;20050;-78
2022/10/12 09:52:09;;;;;;;0.15;0.15;;;11.40;99.90;;;;;;4965057;28;20501;-79
2022/10/12 09:54:38;;;;;;;2.35;0.30;;;11.60;57.50;;;;;;4967139;28;20047;-77
2022/10/12 09:57:05;;;;;;;0.15;0.15;;;11.70;1.00;;;;;;4968113;28;20110;-79
2022/10/12 09:59:42;;;;;;;1.85;1.17;;;11.80;1.00;;;;;;4963048;28;20048;-77
2022/10/12 10:02:44;;;;;;;0.65;0.43;;;11.90;1.00;;;;;;4953575;28;20078;-78
2022/10/12 10:05:23;;;;;;;0.17;0.17;;;12.10;1.00;;;;;;4955104;28;20125;-77
2022/10/12 10:07:49;;;;;;;0.30;0.30;;;12.40;99.90;;;;;;4951709;28;20051;-79
2022/10/12 10:10:23;;;;;;;0.32;0.22;;;12.60;99.90;;;;;;4962029;28;20054;-80
2022/10/12 10:13:01;;;;;;;0.43;0.28;;;12.70;99.90;;;;;;4969368;28;20047;-78
2022/10/12 10:15:33;;;;;;;0.25;0.20;;;12.90;99.90;;;;;;4967888;28;20102;-78
2022/10/12 10:18:06;;;;;;;0.00;0.00;;;13.00;99.90;;;;;;4967641;28;20471;-78
2022/10/12 10:20:43;;;;;;;0.57;0.47;;;13.20;99.90;;;;;;4960257;28;20055;-78
2022/10/12 10:23:24;;;;;;;0.30;0.30;;;14.40;99.90;;;;;;4966822;28;20042;-78
2022/10/12 10:26:13;;;;;;;0.40;0.38;;;13.90;99.90;;;;;;4969068;28;20385;-78
2022/10/12 10:28:44;;;;;;;0.17;0.17;;;14.10;99.90;;;;;;4969799;28;20698;-78
2022/10/12 10:31:13;;;;;;;0.25;0.22;;;14.20;86.30;;;;;;4968715;28;20057;-79
2022/10/12 10:34:03;;;;;;;2.05;1.30;;;14.60;99.90;;;;;;4968206;28;20111;-78
2022/10/12 10:36:53;;;;;;;0.13;0.13;;;14.90;34.10;;;;;;4968364;28;20053;-79
2022/10/12 10:39:46;;;;;;;0.25;0.20;;;15.00;99.90;;;;;;4968297;28;20049;-78
2022/10/12 10:42:32;;;;;;;0.15;0.15;;;15.10;90.60;;;;;;4954688;28;20062;-78
2022/10/12 10:45:26;;;;;;;0.13;0.13;;;15.20;99.90;;;;;;4964260;28;20078;-79
2022/10/12 10:48:16;;;;;;;0.20;0.17;;;15.30;99.90;;;;;;4950448;28;20073;-77
2022/10/12 10:50:48;;;;;;;0.25;0.22;;;15.40;99.90;;;;;;4949056;28;20356;-77
2022/10/12 10:53:20;;;;;;;0.17;0.15;;;15.60;99.90;;;;;;4949289;28;20087;-79
2022/10/12 10:55:54;;;;;;;0.55;0.35;;;15.60;99.90;;;;;;4950259;28;20059;-78
2022/10/12 10:58:29;;;;;;;7.30;1.08;;;15.80;99.90;;;;;;4950399;28;20067;-77
2022/10/12 11:01:02;;;;;;;0.43;0.35;;;15.70;99.90;;;;;;4948487;28;20055;-77
2022/10/12 11:03:55;;;;;;;0.08;0.08;;;15.70;99.90;;;;;;4968378;28;20049;-76
2022/10/12 11:06:39;;;;;;;0.00;0.00;;;16.20;99.90;;;;;;4971414;28;20046;-78
2022/10/12 11:09:38;;;;;;;0.15;0.10;;;16.00;99.90;;;;;;4970393;28;20058;-78
2022/10/12 11:12:32;;;;;;;0.05;0.05;;;16.00;99.90;;;;;;4962963;28;20502;-77
2022/10/12 11:15:16;;;;;;;0.08;0.08;;;16.20;99.90;;;;;;4947233;28;20058;-79
2022/10/12 11:17:47;;;;;;;1.23;0.90;;;15.90;85.40;;;;;;4955548;28;20137;-79
2022/10/12 11:20:36;;;;;;;0.55;0.55;;;16.10;99.90;;;;;;4974796;28;20429;-78
2022/10/12 11:23:17;;;;;;;0.00;0.00;;;16.40;99.90;;;;;;4954069;28;20050;-78
2022/10/12 11:26:00;;;;;;;1.02;0.55;;;16.40;1.00;;;;;;4972516;28;20453;-78
2022/10/12 11:28:29;;;;;;;3.10;0.45;;;16.40;19.90;;;;;;4972187;28;20042;-79
2022/10/12 11:30:56;;;;;;;3.97;1.23;;;16.50;1.00;;;;;;4971796;28;20050;-78
2022/10/12 11:33:29;;;;;;;2.25;0.88;;;16.70;1.00;;;;;;4970808;28;20497;-78
2022/10/12 11:35:57;;;;;;;0.13;0.13;;;16.70;10.40;;;;;;4972133;28;20643;-79
2022/10/12 11:38:29;;;;;;;0.32;0.32;;;16.80;1.00;;;;;;4954973;28;20051;-78
2022/10/12 11:41:21;;;;;;;0.00;0.00;;;16.70;1.00;;;;;;4933744;28;20051;-80
2022/10/12 11:44:14;;;;;;;0.20;0.20;;;17.30;99.90;;;;;;4961497;28;20058;-78
2022/10/12 11:46:55;;;;;;;1.58;1.13;;;17.30;99.90;;;;;;4956164;28;20101;-79
2022/10/12 11:49:33;;;;;;;0.22;0.10;;;17.10;99.90;;;;;;4969854;28;20575;-79
2022/10/12 11:52:04;;;;;;;0.28;0.10;;;16.60;99.90;;;;;;4970425;28;20051;-79
2022/10/12 11:54:33;;;;;;;0.47;0.40;;;16.50;99.90;;;;;;4968146;28;20469;-80
2022/10/12 11:57:05;;;;;;;0.10;0.10;;;16.80;99.90;;;;;;4968382;28;20412;-79
2022/10/12 11:59:42;;;;;;;0.10;0.10;;;16.70;99.90;;;;;;4970235;28;20058;-77
2022/10/12 12:02:26;;;;;;;0.65;0.50;;;17.20;99.90;;;;;;4969822;28;20584;-79
2022/10/12 12:04:52;;;;;;;0.32;0.20;;;17.20;99.90;;;;;;4961891;28;20479;-78
2022/10/12 12:07:35;;;;;;;0.15;0.15;;;17.20;99.90;;;;;;4969313;28;20062;-80
2022/10/12 12:10:24;;;;;;;0.25;0.25;;;17.60;5.90;;;;;;4969797;28;20059;-79
2022/10/12 12:13:16;;;;;;;0.52;0.43;;;17.40;1.00;;;;;;4967959;28;20137;-79
2022/10/12 12:16:02;;;;;;;0.10;0.10;;;17.60;1.00;;;;;;4967356;28;20055;-78
2022/10/12 12:18:49;;;;;;;0.20;0.20;;;17.50;1.00;;;;;;4966947;28;20054;-78
2022/10/12 12:21:14;;;;;;;2.35;1.20;;;17.40;1.00;;;;;;4966914;28;20043;-78
2022/10/12 12:23:49;;;;;;;0.00;0.00;;;17.70;1.00;;;;;;4966560;28;20131;-79
2022/10/12 12:26:17;;;;;;;0.80;0.20;;;17.90;1.00;;;;;;4963504;28;20063;-78
2022/10/12 12:28:48;;;;;;;0.63;0.43;;;17.70;1.00;;;;;;4964543;28;20531;-79
2022/10/12 12:31:24;;;;;;;0.05;0.05;;;17.70;1.00;;;;;;4963486;28;20050;-78
2022/10/12 12:34:02;;;;;;;;;;;17.40;1.00;;;;;;4964808;28;20051;-78
2022/10/12 12:36:37;;;;;;;0.35;0.28;;;17.60;1.00;;;;;;4963526;28;19926;-78
2022/10/12 12:39:19;;;;;;;0.55;0.32;;;17.70;1.00;;;;;;4964431;28;20386;-77
2022/10/12 12:41:58;;;;;;;1.45;0.55;;;18.00;1.00;;;;;;4965500;28;20440;-78
2022/10/12 12:44:43;;;;;;;1.00;0.45;;;18.30;1.00;;;;;;4964793;28;20499;-78
2022/10/12 12:47:09;;;;;;;0.00;0.00;;;18.40;1.00;;;;;;4947168;28;20073;-79
2022/10/12 12:49:40;;;;;;;0.00;0.00;;;18.20;1.00;;;;;;4964912;28;20054;-78
2022/10/12 12:52:27;;;;;;;1.63;0.70;;;18.50;1.00;;;;;;4964419;28;20073;-80
2022/10/12 12:55:16;;;;;;;0.52;0.52;;;18.40;1.00;;;;;;4956646;28;20303;-78
2022/10/12 12:58:04;;;;;;;0.43;0.43;;;18.50;1.00;;;;;;4955989;28;20405;-78
2022/10/12 13:01:08;;;;;;;0.20;0.15;;;18.50;1.00;;;;;;4964318;28;20138;-78
2022/10/12 13:03:51;;;;;;;1.75;0.65;;;18.30;1.00;;;;;;4965062;28;20065;-79
2022/10/12 13:06:38;;;;;;;4.63;1.10;;;19.20;1.00;;;;;;4964202;28;20053;-79
2022/10/12 13:09:12;;;;;;;0.38;0.35;;;18.80;99.90;;;;;;4962801;28;20059;-78
2022/10/12 13:11:53;;;;;;;1.27;1.05;;;19.00;1.00;;;;;;4963371;28;20495;-80
2022/10/12 13:14:38;;;;;;;1.73;0.35;;;19.30;1.00;;;;;;4963233;28;20046;-78
2022/10/12 13:17:34;;;;;;;0.00;0.00;;;19.70;99.90;;;;;;4959248;28;20410;-78
2022/10/12 13:20:16;;;;;;;0.85;0.38;;;19.60;99.90;;;;;;4953559;28;20047;-78
2022/10/12 13:22:44;;;;;;;0.65;0.60;;;19.30;99.90;;;;;;4947548;28;20051;-78
2022/10/12 13:25:27;;;;;;;0.20;0.20;;;19.30;99.90;;;;;;4962437;28;20102;-78
2022/10/12 13:27:53;;;;;;;0.65;0.57;;;19.50;99.90;;;;;;4946600;28;20042;-78